createdAt,value
2018-07-06T00:00:27.283Z,15.50
2018-07-06T00:03:06.963Z,17.57
2018-07-06T00:05:46.575Z,15.03
2018-07-06T00:08:26.397Z,20.60
2018-07-06T00:11:06.039Z,19.93
2018-07-06T00:13:45.692Z,19.13
2018-07-06T00:16:25.225Z,20.53
2018-07-06T00:19:04.688Z,17.73
2018-07-06T00:21:44.283Z,17.37
2018-07-06T00:24:23.779Z,22.40
2018-07-06T00:27:03.379Z,21.00
2018-07-06T00:29:42.988Z,20.17
2018-07-06T00:32:22.567Z,20.23
2018-07-06T00:35:02.228Z,21.83
2018-07-06T00:37:41.824Z,19.90
2018-07-06T00:40:21.435Z,19.27
2018-07-06T00:43:01.119Z,19.80
2018-07-06T00:45:40.739Z,19.53
2018-07-06T00:48:20.364Z,22.43
2018-07-06T00:51:02.161Z,21.47
2018-07-06T00:53:42.205Z,22.37
2018-07-06T00:56:22.125Z,21.80
2018-07-06T00:59:01.757Z,22.10
2018-07-06T01:01:41.400Z,22.77
2018-07-06T01:04:21.156Z,22.13
2018-07-06T01:07:00.768Z,23.80
2018-07-06T01:09:40.568Z,25.87
2018-07-06T01:12:25.553Z,25.47
2018-07-06T01:15:10.727Z,25.33
2018-07-06T01:17:50.451Z,29.47
2018-07-06T01:20:30.074Z,25.10
2018-07-06T01:23:09.712Z,25.83
2018-07-06T01:25:49.291Z,27.03
2018-07-06T01:28:28.896Z,34.10
2018-07-06T01:31:08.609Z,28.97
2018-07-06T01:33:48.220Z,29.17
2018-07-06T01:36:27.973Z,28.37
2018-07-06T01:39:07.662Z,28.90
2018-07-06T01:41:47.262Z,30.50
2018-07-06T01:44:26.906Z,29.30
2018-07-06T01:47:06.505Z,29.70
2018-07-06T01:49:46.210Z,29.10
2018-07-06T01:52:25.806Z,29.50
2018-07-06T01:55:05.308Z,25.73
2018-07-06T01:57:44.982Z,25.10
2018-07-06T02:00:24.648Z,28.17
2018-07-06T02:03:04.263Z,28.37
2018-07-06T02:05:43.916Z,28.20
2018-07-06T02:08:23.523Z,28.10
2018-07-06T02:11:03.088Z,32.23
2018-07-06T02:13:42.552Z,29.13
2018-07-06T02:16:22.280Z,30.93
2018-07-06T02:19:01.830Z,27.40
2018-07-06T02:21:41.443Z,29.33
2018-07-06T02:24:21.163Z,26.10
2018-07-06T02:27:00.852Z,27.63
2018-07-06T02:29:40.425Z,29.33
2018-07-06T02:32:20.148Z,28.93
2018-07-06T02:34:59.716Z,32.00
2018-07-06T02:37:33.233Z,29.67
2018-07-06T02:40:12.871Z,27.93
2018-07-06T02:42:52.411Z,25.00
2018-07-06T02:45:32.091Z,31.23
2018-07-06T02:48:11.755Z,28.87
2018-07-06T02:50:51.784Z,27.57
2018-07-06T02:53:31.369Z,26.63
2018-07-06T02:56:10.997Z,26.87
2018-07-06T02:58:50.492Z,28.27
2018-07-06T03:01:30.148Z,30.73
2018-07-06T03:04:09.742Z,26.57
2018-07-06T03:06:49.371Z,28.30
2018-07-06T03:09:28.953Z,22.93
2018-07-06T03:12:08.677Z,25.50
2018-07-06T03:14:48.171Z,23.83
2018-07-06T03:17:27.823Z,26.40
2018-07-06T03:20:07.342Z,23.70
2018-07-06T03:22:46.941Z,20.77
2018-07-06T03:25:26.713Z,24.40
2018-07-06T03:28:06.246Z,22.70
2018-07-06T03:30:45.772Z,24.10
2018-07-06T03:33:25.462Z,23.50
2018-07-06T03:36:05.034Z,22.00
2018-07-06T03:38:44.860Z,24.23
2018-07-06T03:41:24.578Z,22.87
2018-07-06T03:44:04.172Z,22.73
2018-07-06T03:46:43.738Z,22.70
2018-07-06T03:49:23.326Z,21.83
2018-07-06T03:52:02.952Z,21.80
2018-07-06T03:54:42.558Z,24.70
2018-07-06T03:57:22.315Z,21.50
2018-07-06T04:00:01.863Z,21.40
2018-07-06T04:02:41.642Z,21.63
2018-07-06T04:05:21.263Z,22.57
2018-07-06T04:08:00.929Z,21.27
2018-07-06T04:10:40.692Z,21.70
2018-07-06T04:13:20.241Z,24.30
2018-07-06T04:15:59.793Z,23.83
2018-07-06T04:18:39.423Z,22.10
2018-07-06T04:21:19.053Z,24.10
2018-07-06T04:23:58.669Z,26.03
2018-07-06T04:26:38.326Z,22.30
2018-07-06T04:29:11.937Z,23.77
2018-07-06T04:31:51.632Z,23.03
2018-07-06T04:34:31.222Z,22.00
2018-07-06T04:37:10.677Z,23.37
2018-07-06T04:39:50.341Z,22.80
2018-07-06T04:42:29.943Z,22.80
2018-07-06T04:45:09.612Z,23.10
2018-07-06T04:47:49.318Z,23.20
2018-07-06T04:50:28.929Z,23.60
2018-07-06T04:53:08.498Z,23.40
2018-07-06T04:55:48.125Z,22.10
2018-07-06T04:58:27.821Z,23.23
2018-07-06T05:01:07.606Z,24.40
2018-07-06T05:03:47.303Z,21.27
2018-07-06T05:06:32.180Z,25.63
2018-07-06T05:09:11.978Z,22.67
2018-07-06T05:11:51.632Z,23.57
2018-07-06T05:14:31.230Z,25.37
2018-07-06T05:17:10.820Z,23.63
2018-07-06T05:19:50.468Z,22.13
2018-07-06T05:22:30.074Z,23.20
2018-07-06T05:25:03.619Z,23.10
2018-07-06T05:27:43.287Z,23.63
2018-07-06T05:30:23.009Z,21.80
2018-07-06T05:33:02.614Z,22.00
2018-07-06T05:35:42.407Z,26.17
2018-07-06T05:38:21.958Z,22.17
2018-07-06T05:41:01.699Z,22.23
2018-07-06T05:43:41.240Z,22.07
2018-07-06T05:46:20.908Z,22.33
2018-07-06T05:49:00.657Z,23.30
2018-07-06T05:51:40.218Z,21.30
2018-07-06T05:54:19.849Z,21.17
2018-07-06T05:56:59.584Z,20.13
2018-07-06T05:59:39.200Z,19.20
2018-07-06T06:02:18.824Z,17.17
2018-07-06T06:04:58.389Z,16.87
2018-07-06T06:07:26.600Z,17.90
2018-07-06T06:09:55.110Z,17.90
2018-07-06T06:12:23.559Z,17.60
2018-07-06T06:14:52.537Z,17.57
2018-07-06T06:17:20.960Z,18.93
2018-07-06T06:19:49.471Z,20.07
2018-07-06T06:22:17.981Z,20.07
2018-07-06T06:24:46.529Z,20.60
2018-07-06T06:27:14.945Z,22.40
2018-07-06T06:29:43.475Z,24.37
2018-07-06T06:32:11.883Z,22.00
2018-07-06T06:34:40.337Z,25.73
2018-07-06T06:37:08.822Z,25.13
2018-07-06T06:39:37.278Z,22.73
2018-07-06T06:42:05.739Z,25.63
2018-07-06T06:44:34.202Z,25.27
2018-07-06T06:47:02.708Z,25.17
2018-07-06T06:49:32.272Z,24.43
2018-07-06T06:52:00.976Z,29.03
2018-07-06T06:54:29.641Z,26.27
2018-07-06T06:56:58.133Z,26.83
2018-07-06T06:59:26.583Z,26.33
2018-07-06T07:01:55.084Z,27.50
2018-07-06T07:04:23.614Z,28.23
2018-07-06T07:06:52.094Z,30.23
2018-07-06T07:09:20.514Z,27.03
2018-07-06T07:11:48.993Z,28.73
2018-07-06T07:14:17.405Z,29.33
2018-07-06T07:16:45.867Z,28.37
2018-07-06T07:19:14.307Z,28.23
2018-07-06T07:21:42.765Z,25.77
2018-07-06T07:24:11.175Z,26.07
2018-07-06T07:26:39.644Z,28.10
2018-07-06T07:29:08.052Z,26.07
2018-07-06T07:31:36.919Z,25.47
2018-07-06T07:34:05.570Z,23.20
2018-07-06T07:36:34.149Z,25.93
2018-07-06T07:39:02.775Z,26.53
2018-07-06T07:41:31.206Z,22.90
2018-07-06T07:43:59.706Z,24.07
2018-07-06T07:46:28.163Z,25.03
2018-07-06T07:48:56.646Z,25.80
2018-07-06T07:52:03.253Z,23.20
2018-07-06T07:54:38.127Z,24.23
2018-07-06T07:57:06.625Z,25.20
2018-07-06T07:59:35.132Z,24.50
2018-07-06T08:02:04.149Z,24.80
2018-07-06T08:04:32.745Z,23.00
2018-07-06T08:07:01.210Z,29.30
2018-07-06T08:09:29.650Z,24.20
2018-07-06T08:11:59.455Z,23.30
2018-07-06T08:14:28.050Z,22.23
2018-07-06T08:16:56.565Z,21.77
2018-07-06T08:19:25.899Z,20.17
2018-07-06T08:21:54.064Z,21.30
2018-07-06T08:24:22.562Z,18.87
2018-07-06T08:26:51.044Z,19.93
2018-07-06T08:29:19.520Z,18.53
2018-07-06T08:31:48.168Z,17.43
2018-07-06T08:34:27.804Z,17.23
2018-07-06T08:37:37.647Z,17.50
2018-07-06T08:40:06.220Z,17.03
2018-07-06T08:42:35.712Z,20.00
2018-07-06T08:45:04.578Z,18.63
2018-07-06T08:47:33.110Z,18.23
2018-07-06T08:50:02.189Z,19.13
2018-07-06T08:52:30.899Z,16.80
2018-07-06T08:54:59.360Z,15.70
2018-07-06T08:57:29.029Z,15.77
2018-07-06T08:59:57.504Z,16.00
2018-07-06T09:02:26.269Z,17.90
2018-07-06T09:04:55.617Z,18.10
2018-07-06T09:07:24.292Z,16.50
2018-07-06T09:09:53.309Z,17.23
2018-07-06T09:12:21.762Z,18.27
2018-07-06T09:14:50.230Z,20.43
2018-07-06T09:17:19.454Z,20.60
2018-07-06T09:19:48.482Z,22.40
2018-07-06T09:22:17.416Z,19.50
2018-07-06T09:24:46.969Z,20.53
2018-07-06T09:27:15.398Z,18.77
2018-07-06T09:29:43.909Z,18.10
2018-07-06T09:32:12.372Z,18.57
2018-07-06T09:34:41.295Z,19.03
2018-07-06T09:37:09.797Z,17.47
2018-07-06T09:39:39.034Z,16.47
2018-07-06T09:42:07.483Z,16.37
2018-07-06T09:44:35.997Z,16.17
2018-07-06T09:47:04.577Z,16.47
2018-07-06T09:49:33.030Z,14.77
2018-07-06T09:52:01.472Z,12.90
2018-07-06T09:54:29.981Z,11.87
2018-07-06T09:56:58.583Z,11.20
2018-07-06T09:59:27.038Z,15.73
2018-07-06T10:01:55.493Z,14.17
2018-07-06T10:04:23.988Z,14.30
2018-07-06T10:06:52.473Z,14.27
2018-07-06T10:09:20.948Z,14.10
2018-07-06T10:11:49.427Z,14.87
2018-07-06T10:14:17.888Z,13.40
2018-07-06T10:16:46.448Z,14.27
2018-07-06T10:19:14.918Z,13.23
2018-07-06T10:21:43.391Z,12.57
2018-07-06T10:24:11.810Z,12.77
2018-07-06T10:26:40.309Z,13.93
2018-07-06T10:29:27.892Z,12.57
2018-07-06T10:32:31.208Z,14.47
2018-07-06T10:35:00.206Z,13.90
2018-07-06T10:37:29.298Z,12.97
2018-07-06T10:39:57.857Z,11.60
2018-07-06T10:42:26.268Z,11.30
2018-07-06T10:44:54.769Z,12.10
2018-07-06T10:47:23.291Z,10.87
2018-07-06T10:49:51.762Z,10.57
2018-07-06T10:52:20.222Z,10.93
2018-07-06T10:54:48.727Z,10.93
2018-07-06T10:57:17.228Z,12.47
2018-07-06T10:59:45.651Z,9.93
2018-07-06T11:02:14.124Z,10.93
2018-07-06T11:04:42.694Z,10.20
2018-07-06T11:07:11.208Z,9.33
2018-07-06T11:09:39.668Z,12.37
2018-07-06T11:12:08.172Z,9.13
2018-07-06T11:14:36.753Z,9.03
2018-07-06T11:17:05.244Z,8.00
2018-07-06T11:19:33.732Z,7.97
2018-07-06T11:22:02.214Z,7.90
2018-07-06T11:24:30.662Z,7.30
2018-07-06T11:26:59.153Z,6.27
2018-07-06T11:29:27.666Z,6.10
2018-07-06T11:31:56.168Z,6.40
2018-07-06T11:34:24.621Z,8.30
2018-07-06T11:36:53.114Z,6.83
2018-07-06T11:39:21.544Z,6.83
2018-07-06T11:41:50.033Z,5.83
2018-07-06T11:44:18.524Z,5.80
2018-07-06T11:46:47.011Z,5.87
2018-07-06T11:49:15.524Z,6.20
2018-07-06T11:51:44.076Z,6.12
2018-07-06T11:54:12.531Z,9.43
2018-07-06T11:56:41.025Z,5.45
2018-07-06T11:59:09.473Z,5.70
2018-07-06T12:01:38.084Z,5.40
2018-07-06T12:04:06.652Z,5.30
2018-07-06T12:06:35.047Z,4.72
2018-07-06T12:09:04.445Z,4.67
2018-07-06T12:11:32.905Z,4.53
2018-07-06T12:14:01.380Z,4.65
2018-07-06T12:16:30.042Z,4.83
2018-07-06T12:18:58.523Z,4.80
2018-07-06T12:21:27.035Z,5.15
2018-07-06T12:23:55.473Z,4.28
2018-07-06T12:26:23.951Z,3.77
2018-07-06T12:28:52.423Z,4.15
2018-07-06T12:31:21.053Z,4.37
2018-07-06T12:33:49.585Z,3.85
2018-07-06T12:36:18.080Z,3.58
2018-07-06T12:38:47.170Z,3.62
2018-07-06T12:41:15.684Z,3.00
2018-07-06T12:43:44.342Z,3.70
2018-07-06T12:46:12.841Z,3.30
2018-07-06T12:48:41.358Z,3.27
2018-07-06T12:51:09.800Z,3.62
2018-07-06T12:53:38.323Z,3.47
2018-07-06T12:56:06.828Z,4.85
2018-07-06T12:58:35.393Z,2.87
2018-07-06T13:01:03.802Z,2.50
2018-07-06T13:03:32.288Z,2.95
2018-07-06T13:06:00.745Z,2.42
2018-07-06T13:08:29.204Z,2.52
2018-07-06T13:10:57.643Z,2.70
2018-07-06T13:13:26.150Z,2.40
2018-07-06T13:15:54.593Z,2.20
2018-07-06T13:18:23.048Z,2.10
2018-07-06T13:20:51.520Z,2.98
2018-07-06T13:23:19.996Z,2.15
2018-07-06T13:25:48.498Z,1.70
2018-07-06T13:28:17.029Z,2.10
2018-07-06T13:30:45.488Z,2.37
2018-07-06T13:33:13.959Z,2.42
2018-07-06T13:35:42.395Z,2.45
2018-07-06T13:38:10.870Z,1.77
2018-07-06T13:40:39.287Z,2.30
2018-07-06T13:43:07.744Z,2.30
2018-07-06T13:45:36.186Z,2.02
2018-07-06T13:48:04.771Z,2.00
2018-07-06T13:50:33.256Z,2.00
2018-07-06T13:53:01.715Z,2.72
2018-07-06T13:55:30.248Z,4.12
2018-07-06T13:57:58.717Z,2.65
2018-07-06T14:00:27.161Z,3.58
2018-07-06T14:02:55.636Z,2.15
2018-07-06T14:05:24.056Z,2.02
2018-07-06T14:07:52.496Z,2.87
2018-07-06T14:10:20.937Z,2.33
2018-07-06T14:12:49.434Z,4.28
2018-07-06T14:15:17.851Z,2.45
2018-07-06T14:17:46.385Z,1.60
2018-07-06T14:20:14.963Z,1.82
2018-07-06T14:22:43.478Z,3.27
2018-07-06T14:25:11.856Z,1.87
2018-07-06T14:27:40.320Z,1.80
2018-07-06T14:30:08.785Z,1.70
2018-07-06T14:32:37.508Z,1.65
2018-07-06T14:35:05.943Z,1.45
2018-07-06T14:37:34.383Z,2.00
2018-07-06T14:40:02.849Z,1.65
2018-07-06T14:42:31.364Z,1.55
2018-07-06T14:44:59.818Z,4.05
2018-07-06T14:47:28.319Z,1.47
2018-07-06T14:49:56.466Z,2.47
2018-07-06T14:52:25.012Z,1.35
2018-07-06T14:54:53.482Z,1.30
2018-07-06T14:57:21.955Z,1.10
2018-07-06T14:59:50.420Z,2.87
2018-07-06T15:02:18.871Z,1.02
2018-07-06T15:04:47.426Z,1.40
2018-07-06T15:07:15.922Z,1.27
2018-07-06T15:09:44.380Z,1.27
2018-07-06T15:12:12.935Z,1.15
2018-07-06T15:14:41.643Z,0.93
2018-07-06T15:17:10.198Z,1.10
2018-07-06T15:19:39.050Z,1.00
2018-07-06T15:22:07.518Z,3.08
2018-07-06T15:24:36.768Z,1.32
2018-07-06T15:27:05.440Z,1.30
2018-07-06T15:29:33.939Z,0.90
2018-07-06T15:32:02.575Z,1.20
2018-07-06T15:34:31.109Z,2.27
2018-07-06T15:36:59.565Z,0.90
2018-07-06T15:39:28.008Z,3.20
2018-07-06T15:41:56.468Z,1.52
2018-07-06T15:44:24.920Z,1.80
2018-07-06T15:46:53.980Z,3.15
2018-07-06T15:49:22.436Z,1.20
2018-07-06T15:51:50.847Z,1.77
2018-07-06T15:54:19.436Z,2.25
2018-07-06T15:56:47.848Z,1.62
2018-07-06T15:59:16.420Z,0.88
2018-07-06T16:01:44.846Z,0.90
2018-07-06T16:04:13.324Z,1.72
2018-07-06T16:06:42.292Z,1.92
2018-07-06T16:09:10.732Z,1.02
2018-07-06T16:11:39.203Z,1.45
2018-07-06T16:14:07.755Z,1.47
2018-07-06T16:16:36.160Z,2.75
2018-07-06T16:19:04.636Z,1.00
2018-07-06T16:21:33.087Z,1.35
2018-07-06T16:24:01.743Z,0.95
2018-07-06T16:26:30.212Z,0.90
2018-07-06T16:28:59.231Z,1.82
2018-07-06T16:31:27.782Z,1.47
2018-07-06T16:33:56.178Z,1.20
2018-07-06T16:36:24.780Z,1.55
2018-07-06T16:38:53.212Z,1.75
2018-07-06T16:41:21.739Z,1.55
2018-07-06T16:43:50.296Z,1.27
2018-07-06T16:46:18.864Z,1.37
2018-07-06T16:48:47.322Z,1.42
2018-07-06T16:51:15.792Z,1.55
2018-07-06T16:53:44.225Z,1.67
2018-07-06T16:56:12.813Z,1.40
2018-07-06T16:58:41.255Z,3.22
2018-07-06T17:01:10.069Z,2.02
2018-07-06T17:03:39.530Z,5.25
2018-07-06T17:06:09.142Z,3.85
2018-07-06T17:08:38.200Z,1.60
2018-07-06T17:11:10.243Z,2.22
2018-07-06T17:13:40.277Z,2.35
2018-07-06T17:16:11.807Z,2.27
2018-07-06T17:18:41.008Z,5.58
2018-07-06T17:21:09.933Z,2.70
2018-07-06T17:23:38.354Z,3.30
2018-07-06T17:26:06.883Z,4.78
2018-07-06T17:28:35.288Z,5.80
2018-07-06T17:31:03.848Z,2.47
2018-07-06T17:33:32.421Z,2.00
2018-07-06T17:36:00.835Z,1.90
2018-07-06T17:38:29.252Z,2.35
2018-07-06T17:40:57.699Z,2.10
2018-07-06T17:43:25.814Z,2.15
2018-07-06T17:45:54.288Z,4.65
2018-07-06T17:48:22.891Z,2.62
2018-07-06T17:50:51.362Z,2.00
2018-07-06T17:53:19.827Z,1.90
2018-07-06T17:55:48.312Z,3.98
2018-07-06T17:58:16.737Z,2.67
2018-07-06T18:00:45.172Z,2.15
2018-07-06T18:03:13.626Z,3.10
2018-07-06T18:05:42.068Z,2.30
2018-07-06T18:08:10.523Z,2.92
2018-07-06T18:10:39.034Z,2.65
2018-07-06T18:13:07.663Z,6.75
2018-07-06T18:15:36.223Z,3.05
2018-07-06T18:18:04.839Z,4.15
2018-07-06T18:20:33.589Z,2.65
2018-07-06T18:23:02.865Z,2.13
2018-07-06T18:25:31.449Z,3.20
2018-07-06T18:28:00.428Z,2.40
2018-07-06T18:30:29.266Z,3.10
2018-07-06T18:32:57.816Z,4.33
2018-07-06T18:35:26.728Z,2.20
2018-07-06T18:37:54.911Z,2.20
2018-07-06T18:40:23.327Z,3.80
2018-07-06T18:42:51.773Z,2.73
2018-07-06T18:45:20.264Z,2.10
2018-07-06T18:47:48.672Z,2.13
2018-07-06T18:50:17.152Z,2.73
2018-07-06T18:52:46.256Z,5.40
2018-07-06T18:55:14.793Z,2.90
2018-07-06T18:57:43.274Z,2.50
2018-07-06T19:00:11.960Z,2.43
2018-07-06T19:02:40.438Z,2.13
2018-07-06T19:05:08.955Z,2.50
2018-07-06T19:07:37.376Z,2.60
2018-07-06T19:10:06.163Z,3.30
2018-07-06T19:12:34.611Z,2.80
2018-07-06T19:15:03.023Z,2.97
2018-07-06T19:17:31.549Z,2.80
2018-07-06T19:19:59.974Z,3.87
2018-07-06T19:22:28.407Z,3.77
2018-07-06T19:24:56.803Z,5.23
2018-07-06T19:27:25.336Z,3.20
2018-07-06T19:29:53.450Z,4.43
2018-07-06T19:32:21.880Z,3.30
2018-07-06T19:34:50.296Z,4.50
2018-07-06T19:37:18.727Z,4.37
2018-07-06T19:39:47.123Z,3.23
2018-07-06T19:42:15.558Z,5.33
2018-07-06T19:44:43.984Z,3.77
2018-07-06T19:47:12.446Z,3.47
2018-07-06T19:49:40.553Z,3.77
2018-07-06T19:52:08.951Z,5.60
2018-07-06T19:54:37.378Z,4.43
2018-07-06T19:57:06.219Z,6.70
2018-07-06T19:59:34.688Z,3.53
2018-07-06T20:02:03.096Z,4.47
2018-07-06T20:04:31.547Z,5.33
2018-07-06T20:06:59.943Z,7.07
2018-07-06T20:09:28.389Z,5.07
2018-07-06T20:12:02.589Z,6.60
2018-07-06T20:14:32.955Z,4.00
2018-07-06T20:17:02.409Z,4.47
2018-07-06T20:19:53.305Z,4.40
2018-07-06T20:22:32.947Z,4.50
2018-07-06T20:25:11.624Z,6.30
2018-07-06T20:27:41.838Z,5.53
2018-07-06T20:30:12.537Z,5.33
2018-07-06T20:32:41.572Z,5.20
2018-07-06T20:35:11.467Z,4.43
2018-07-06T20:37:40.791Z,4.77
2018-07-06T20:40:10.102Z,5.20
2018-07-06T20:42:38.696Z,4.73
2018-07-06T20:45:07.343Z,3.70
2018-07-06T20:47:35.803Z,5.03
2018-07-06T20:50:04.480Z,4.77
2018-07-06T20:52:32.979Z,4.27
2018-07-06T20:55:01.624Z,5.30
2018-07-06T20:57:31.305Z,4.50
2018-07-06T20:59:59.803Z,5.80
2018-07-06T21:02:28.352Z,4.87
2018-07-06T21:04:57.061Z,4.27
2018-07-06T21:07:25.484Z,4.03
2018-07-06T21:09:53.933Z,4.27
2018-07-06T21:12:23.141Z,6.13
2018-07-06T21:14:51.683Z,5.37
2018-07-06T21:17:20.194Z,5.93
2018-07-06T21:19:48.708Z,4.97
2018-07-06T21:22:17.392Z,5.17
2018-07-06T21:24:46.059Z,5.10
2018-07-06T21:27:14.927Z,5.60
2018-07-06T21:29:43.551Z,4.40
2018-07-06T21:32:12.591Z,7.20
2018-07-06T21:34:41.000Z,7.73
2018-07-06T21:37:09.431Z,6.93
2018-07-06T21:39:37.818Z,5.37
2018-07-06T21:42:06.239Z,8.63
2018-07-06T21:44:34.637Z,5.73
2018-07-06T21:47:03.084Z,6.50
2018-07-06T21:49:31.484Z,4.97
2018-07-06T21:51:59.978Z,4.97
2018-07-06T21:54:28.368Z,5.77
2018-07-06T21:56:56.795Z,7.20
2018-07-06T21:59:24.904Z,4.90
2018-07-06T22:01:53.375Z,6.43
2018-07-06T22:04:21.800Z,5.13
2018-07-06T22:06:50.252Z,8.13
2018-07-06T22:09:18.684Z,5.17
2018-07-06T22:11:47.116Z,5.13
2018-07-06T22:14:15.506Z,5.20
2018-07-06T22:16:43.895Z,7.03
2018-07-06T22:19:12.340Z,5.10
2018-07-06T22:21:40.725Z,6.23
2018-07-06T22:24:09.156Z,4.97
2018-07-06T22:26:37.562Z,5.30
2018-07-06T22:29:06.036Z,7.07
2018-07-06T22:31:34.446Z,5.70
2018-07-06T22:34:02.872Z,5.30
2018-07-06T22:36:31.275Z,7.73
2018-07-06T22:38:59.707Z,6.00
2018-07-06T22:41:28.100Z,6.70
2018-07-06T22:43:56.523Z,7.30
2018-07-06T22:46:25.139Z,7.83
2018-07-06T22:48:53.575Z,6.57
2018-07-06T22:51:22.031Z,7.53
2018-07-06T22:53:50.495Z,5.77
2018-07-06T22:56:18.876Z,6.50
2018-07-06T22:58:47.312Z,6.73
2018-07-06T23:01:15.759Z,8.30
2018-07-06T23:03:44.484Z,5.87
2018-07-06T23:06:12.931Z,6.93
2018-07-06T23:08:41.482Z,6.20
2018-07-06T23:11:09.907Z,7.33
2018-07-06T23:13:38.410Z,5.87
2018-07-06T23:16:07.034Z,5.03
2018-07-06T23:18:35.440Z,5.40
2018-07-06T23:21:03.882Z,5.40
2018-07-06T23:23:32.288Z,6.17
2018-07-06T23:26:00.723Z,6.47
2018-07-06T23:28:29.117Z,6.70
2018-07-06T23:30:57.603Z,5.50
2018-07-06T23:33:25.702Z,6.37
2018-07-06T23:35:54.140Z,7.47
2018-07-06T23:38:22.627Z,5.90
2018-07-06T23:40:51.014Z,7.87
2018-07-06T23:43:19.412Z,6.10
2018-07-06T23:45:47.830Z,5.93
2018-07-06T23:48:16.223Z,7.03
2018-07-06T23:50:44.656Z,6.10
2018-07-06T23:53:13.064Z,9.73
2018-07-06T23:55:41.495Z,6.23
2018-07-06T23:58:09.899Z,6.40
